sensor_id;sensor_type;location;lat;lon;timestamp;temperature;humidity
52387;DHT22;38317;53.084;6.960;2022-08-06T00:02:24;13.90;99.90
52387;DHT22;38317;53.084;6.960;2022-08-06T00:04:50;13.90;99.90
52387;DHT22;38317;53.084;6.960;2022-08-06T00:07:17;13.80;99.90
52387;DHT22;38317;53.084;6.960;2022-08-06T00:09:42;13.80;99.90
52387;DHT22;38317;53.084;6.960;2022-08-06T00:12:08;13.80;99.90
52387;DHT22;38317;53.084;6.960;2022-08-06T00:14:34;13.80;99.90
52387;DHT22;38317;53.084;6.960;2022-08-06T00:17:00;13.80;99.90
52387;DHT22;38317;53.084;6.960;2022-08-06T00:19:26;13.80;99.90
52387;DHT22;38317;53.084;6.960;2022-08-06T00:21:52;13.80;99.90
52387;DHT22;38317;53.084;6.960;2022-08-06T00:24:19;13.80;99.90
52387;DHT22;38317;53.084;6.960;2022-08-06T00:26:45;13.80;99.90
52387;DHT22;38317;53.084;6.960;2022-08-06T00:29:12;13.80;99.90
52387;DHT22;38317;53.084;6.960;2022-08-06T00:31:38;13.70;99.90
52387;DHT22;38317;53.084;6.960;2022-08-06T00:34:04;13.70;99.90
52387;DHT22;38317;53.084;6.960;2022-08-06T00:36:31;13.70;99.90
52387;DHT22;38317;53.084;6.960;2022-08-06T00:38:58;13.70;99.90
52387;DHT22;38317;53.084;6.960;2022-08-06T00:41:25;13.80;99.90
52387;DHT22;38317;53.084;6.960;2022-08-06T00:43:50;13.70;99.90
52387;DHT22;38317;53.084;6.960;2022-08-06T00:46:16;13.70;99.90
52387;DHT22;38317;53.084;6.960;2022-08-06T00:48:43;13.60;99.90
52387;DHT22;38317;53.084;6.960;2022-08-06T00:51:09;13.60;99.90
52387;DHT22;38317;53.084;6.960;2022-08-06T00:53:35;13.60;99.90
52387;DHT22;38317;53.084;6.960;2022-08-06T00:56:03;13.50;99.90
52387;DHT22;38317;53.084;6.960;2022-08-06T00:58:29;13.50;99.90
52387;DHT22;38317;53.084;6.960;2022-08-06T01:00:55;13.50;99.90
52387;DHT22;38317;53.084;6.960;2022-08-06T01:03:21;13.40;99.90
52387;DHT22;38317;53.084;6.960;2022-08-06T01:05:47;13.50;99.90
52387;DHT22;38317;53.084;6.960;2022-08-06T01:08:13;13.40;99.90
52387;DHT22;38317;53.084;6.960;2022-08-06T01:10:39;13.40;99.90
52387;DHT22;38317;53.084;6.960;2022-08-06T01:13:05;13.40;99.90
52387;DHT22;38317;53.084;6.960;2022-08-06T01:15:34;13.40;99.90
52387;DHT22;38317;53.084;6.960;2022-08-06T01:18:34;13.30;99.90
52387;DHT22;38317;53.084;6.960;2022-08-06T01:21:10;13.30;99.90
52387;DHT22;38317;53.084;6.960;2022-08-06T01:29:42;13.10;99.90
52387;DHT22;38317;53.084;6.960;2022-08-06T01:32:15;13.00;99.90
52387;DHT22;38317;53.084;6.960;2022-08-06T01:35:04;13.00;99.90
52387;DHT22;38317;53.084;6.960;2022-08-06T01:37:36;12.90;99.90
52387;DHT22;38317;53.084;6.960;2022-08-06T01:40:08;12.80;99.90
52387;DHT22;38317;53.084;6.960;2022-08-06T01:42:37;12.70;99.90
52387;DHT22;38317;53.084;6.960;2022-08-06T01:45:07;12.60;99.90
52387;DHT22;38317;53.084;6.960;2022-08-06T01:47:35;12.60;99.90
52387;DHT22;38317;53.084;6.960;2022-08-06T01:50:04;12.50;99.90
52387;DHT22;38317;53.084;6.960;2022-08-06T01:52:36;12.50;99.90
52387;DHT22;38317;53.084;6.960;2022-08-06T01:55:11;12.50;99.90
52387;DHT22;38317;53.084;6.960;2022-08-06T01:57:41;12.40;99.90
52387;DHT22;38317;53.084;6.960;2022-08-06T02:00:08;12.40;99.90
52387;DHT22;38317;53.084;6.960;2022-08-06T02:02:35;12.40;99.90
52387;DHT22;38317;53.084;6.960;2022-08-06T02:05:03;12.40;99.90
52387;DHT22;38317;53.084;6.960;2022-08-06T02:07:33;12.40;99.90
52387;DHT22;38317;53.084;6.960;2022-08-06T02:10:02;12.40;99.90
52387;DHT22;38317;53.084;6.960;2022-08-06T02:12:29;12.30;99.90
52387;DHT22;38317;53.084;6.960;2022-08-06T02:15:04;12.30;99.90
52387;DHT22;38317;53.084;6.960;2022-08-06T02:17:35;12.30;99.90
52387;DHT22;38317;53.084;6.960;2022-08-06T02:20:04;12.30;99.90
52387;DHT22;38317;53.084;6.960;2022-08-06T02:22:33;12.30;99.90
52387;DHT22;38317;53.084;6.960;2022-08-06T02:25:02;12.30;99.90
52387;DHT22;38317;53.084;6.960;2022-08-06T02:27:30;12.30;99.90
52387;DHT22;38317;53.084;6.960;2022-08-06T02:29:59;12.30;99.90
52387;DHT22;38317;53.084;6.960;2022-08-06T02:32:27;12.20;99.90
52387;DHT22;38317;53.084;6.960;2022-08-06T02:34:53;12.20;99.90
52387;DHT22;38317;53.084;6.960;2022-08-06T02:37:23;12.20;99.90
52387;DHT22;38317;53.084;6.960;2022-08-06T02:39:55;12.10;99.90
52387;DHT22;38317;53.084;6.960;2022-08-06T02:45:15;12.10;99.90
52387;DHT22;38317;53.084;6.960;2022-08-06T02:47:52;12.10;99.90
52387;DHT22;38317;53.084;6.960;2022-08-06T02:50:27;12.10;99.90
52387;DHT22;38317;53.084;6.960;2022-08-06T02:53:09;12.10;99.90
52387;DHT22;38317;53.084;6.960;2022-08-06T02:55:38;12.00;99.90
52387;DHT22;38317;53.084;6.960;2022-08-06T02:58:19;12.00;99.90
52387;DHT22;38317;53.084;6.960;2022-08-06T03:00:50;12.00;99.90
52387;DHT22;38317;53.084;6.960;2022-08-06T03:03:20;11.90;99.90
52387;DHT22;38317;53.084;6.960;2022-08-06T03:05:47;11.80;99.90
52387;DHT22;38317;53.084;6.960;2022-08-06T03:08:18;11.80;99.90
52387;DHT22;38317;53.084;6.960;2022-08-06T03:10:46;11.80;99.90
52387;DHT22;38317;53.084;6.960;2022-08-06T03:13:13;11.70;99.90
52387;DHT22;38317;53.084;6.960;2022-08-06T03:15:40;11.70;99.90
52387;DHT22;38317;53.084;6.960;2022-08-06T03:18:07;11.70;99.90
52387;DHT22;38317;53.084;6.960;2022-08-06T03:20:35;11.70;99.90
52387;DHT22;38317;53.084;6.960;2022-08-06T03:23:04;11.60;99.90
52387;DHT22;38317;53.084;6.960;2022-08-06T03:25:32;11.60;99.90
52387;DHT22;38317;53.084;6.960;2022-08-06T03:27:59;11.50;99.90
52387;DHT22;38317;53.084;6.960;2022-08-06T03:30:25;11.50;99.90
52387;DHT22;38317;53.084;6.960;2022-08-06T03:32:52;11.60;99.90
52387;DHT22;38317;53.084;6.960;2022-08-06T03:35:21;11.60;99.90
52387;DHT22;38317;53.084;6.960;2022-08-06T03:37:48;11.60;99.90
52387;DHT22;38317;53.084;6.960;2022-08-06T03:40:18;11.60;99.90
52387;DHT22;38317;53.084;6.960;2022-08-06T03:42:45;11.60;99.90
52387;DHT22;38317;53.084;6.960;2022-08-06T03:45:11;11.60;99.90
52387;DHT22;38317;53.084;6.960;2022-08-06T03:47:41;11.60;99.90
52387;DHT22;38317;53.084;6.960;2022-08-06T03:50:15;11.60;99.90
52387;DHT22;38317;53.084;6.960;2022-08-06T03:52:47;11.50;99.90
52387;DHT22;38317;53.084;6.960;2022-08-06T03:55:20;11.50;99.90
52387;DHT22;38317;53.084;6.960;2022-08-06T03:57:49;11.50;99.90
52387;DHT22;38317;53.084;6.960;2022-08-06T04:00:18;11.50;99.90
52387;DHT22;38317;53.084;6.960;2022-08-06T04:02:49;11.50;99.90
52387;DHT22;38317;53.084;6.960;2022-08-06T04:05:20;11.50;99.90
52387;DHT22;38317;53.084;6.960;2022-08-06T04:07:48;11.40;99.90
52387;DHT22;38317;53.084;6.960;2022-08-06T04:10:15;11.40;99.90
52387;DHT22;38317;53.084;6.960;2022-08-06T04:12:43;11.30;99.90
52387;DHT22;38317;53.084;6.960;2022-08-06T04:15:11;11.30;99.90
52387;DHT22;38317;53.084;6.960;2022-08-06T04:17:38;11.30;99.90
52387;DHT22;38317;53.084;6.960;2022-08-06T04:20:06;11.30;99.90
52387;DHT22;38317;53.084;6.960;2022-08-06T04:22:33;11.30;99.90
52387;DHT22;38317;53.084;6.960;2022-08-06T04:24:59;11.30;99.90
52387;DHT22;38317;53.084;6.960;2022-08-06T04:27:27;11.30;99.90
52387;DHT22;38317;53.084;6.960;2022-08-06T04:29:54;11.20;99.90
52387;DHT22;38317;53.084;6.960;2022-08-06T04:32:22;11.30;99.90
52387;DHT22;38317;53.084;6.960;2022-08-06T04:34:48;11.20;99.90
52387;DHT22;38317;53.084;6.960;2022-08-06T04:37:15;11.20;99.90
52387;DHT22;38317;53.084;6.960;2022-08-06T04:39:42;11.20;99.90
52387;DHT22;38317;53.084;6.960;2022-08-06T04:42:08;11.20;99.90
52387;DHT22;38317;53.084;6.960;2022-08-06T04:44:35;11.20;99.90
52387;DHT22;38317;53.084;6.960;2022-08-06T04:47:01;11.20;99.90
52387;DHT22;38317;53.084;6.960;2022-08-06T04:49:28;11.20;99.90
52387;DHT22;38317;53.084;6.960;2022-08-06T04:51:54;11.30;99.90
52387;DHT22;38317;53.084;6.960;2022-08-06T04:54:21;11.30;99.90
52387;DHT22;38317;53.084;6.960;2022-08-06T04:56:46;11.40;99.90
52387;DHT22;38317;53.084;6.960;2022-08-06T04:59:13;11.40;99.90
52387;DHT22;38317;53.084;6.960;2022-08-06T05:01:38;11.40;99.90
52387;DHT22;38317;53.084;6.960;2022-08-06T05:04:04;11.40;99.90
52387;DHT22;38317;53.084;6.960;2022-08-06T05:09:33;11.50;99.90
52387;DHT22;38317;53.084;6.960;2022-08-06T05:12:10;11.60;99.90
52387;DHT22;38317;53.084;6.960;2022-08-06T05:14:43;11.70;99.90
52387;DHT22;38317;53.084;6.960;2022-08-06T05:17:14;11.80;99.90
52387;DHT22;38317;53.084;6.960;2022-08-06T05:19:50;11.80;99.90
52387;DHT22;38317;53.084;6.960;2022-08-06T05:22:18;11.90;99.90
52387;DHT22;38317;53.084;6.960;2022-08-06T05:24:45;12.00;99.90
52387;DHT22;38317;53.084;6.960;2022-08-06T05:27:13;12.00;99.90
52387;DHT22;38317;53.084;6.960;2022-08-06T05:29:40;12.00;99.90
52387;DHT22;38317;53.084;6.960;2022-08-06T05:32:06;12.10;99.90
52387;DHT22;38317;53.084;6.960;2022-08-06T05:34:32;12.20;99.90
52387;DHT22;38317;53.084;6.960;2022-08-06T05:36:58;12.20;99.90
52387;DHT22;38317;53.084;6.960;2022-08-06T05:39:23;12.20;99.90
52387;DHT22;38317;53.084;6.960;2022-08-06T05:41:49;12.30;99.90
52387;DHT22;38317;53.084;6.960;2022-08-06T05:44:15;12.30;99.90
52387;DHT22;38317;53.084;6.960;2022-08-06T05:46:49;12.40;99.90
52387;DHT22;38317;53.084;6.960;2022-08-06T05:49:27;12.50;99.90
52387;DHT22;38317;53.084;6.960;2022-08-06T05:55:16;12.80;99.90
52387;DHT22;38317;53.084;6.960;2022-08-06T05:57:49;12.90;99.90
52387;DHT22;38317;53.084;6.960;2022-08-06T06:00:18;13.10;99.90
52387;DHT22;38317;53.084;6.960;2022-08-06T06:02:47;13.20;99.90
52387;DHT22;38317;53.084;6.960;2022-08-06T06:05:13;13.30;99.90
52387;DHT22;38317;53.084;6.960;2022-08-06T06:07:39;13.40;99.90
52387;DHT22;38317;53.084;6.960;2022-08-06T06:10:06;13.50;99.90
52387;DHT22;38317;53.084;6.960;2022-08-06T06:12:33;13.50;99.90
52387;DHT22;38317;53.084;6.960;2022-08-06T06:15:04;13.60;99.90
52387;DHT22;38317;53.084;6.960;2022-08-06T06:20:30;13.70;99.90
52387;DHT22;38317;53.084;6.960;2022-08-06T06:23:49;13.80;99.90
52387;DHT22;38317;53.084;6.960;2022-08-06T06:35:02;13.70;99.90
52387;DHT22;38317;53.084;6.960;2022-08-06T06:40:03;13.80;99.90
52387;DHT22;38317;53.084;6.960;2022-08-06T06:42:42;13.90;99.90
52387;DHT22;38317;53.084;6.960;2022-08-06T06:45:18;14.00;99.90
52387;DHT22;38317;53.084;6.960;2022-08-06T06:47:55;14.20;99.90
52387;DHT22;38317;53.084;6.960;2022-08-06T06:50:27;14.40;99.90
52387;DHT22;38317;53.084;6.960;2022-08-06T06:52:55;14.60;99.90
52387;DHT22;38317;53.084;6.960;2022-08-06T06:55:35;14.70;99.90
52387;DHT22;38317;53.084;6.960;2022-08-06T06:58:17;14.80;99.90
52387;DHT22;38317;53.084;6.960;2022-08-06T07:00:44;14.90;99.90
52387;DHT22;38317;53.084;6.960;2022-08-06T07:03:11;14.90;99.90
52387;DHT22;38317;53.084;6.960;2022-08-06T07:05:39;15.00;99.90
52387;DHT22;38317;53.084;6.960;2022-08-06T07:08:07;15.10;99.90
52387;DHT22;38317;53.084;6.960;2022-08-06T07:10:34;15.10;99.90
52387;DHT22;38317;53.084;6.960;2022-08-06T07:13:01;15.20;99.90
52387;DHT22;38317;53.084;6.960;2022-08-06T07:15:28;15.20;99.90
52387;DHT22;38317;53.084;6.960;2022-08-06T07:17:56;15.30;99.90
52387;DHT22;38317;53.084;6.960;2022-08-06T07:20:26;15.30;99.90
52387;DHT22;38317;53.084;6.960;2022-08-06T07:22:54;15.40;99.90
52387;DHT22;38317;53.084;6.960;2022-08-06T07:25:20;15.40;99.90
52387;DHT22;38317;53.084;6.960;2022-08-06T07:27:50;15.50;99.90
52387;DHT22;38317;53.084;6.960;2022-08-06T07:30:17;15.50;99.90
52387;DHT22;38317;53.084;6.960;2022-08-06T07:32:45;15.50;99.90
52387;DHT22;38317;53.084;6.960;2022-08-06T07:35:12;15.50;99.90
52387;DHT22;38317;53.084;6.960;2022-08-06T07:37:46;15.70;99.90
52387;DHT22;38317;53.084;6.960;2022-08-06T07:40:22;15.70;99.90
52387;DHT22;38317;53.084;6.960;2022-08-06T07:42:53;15.70;99.90
52387;DHT22;38317;53.084;6.960;2022-08-06T07:45:20;15.90;99.90
52387;DHT22;38317;53.084;6.960;2022-08-06T07:47:49;16.20;99.90
52387;DHT22;38317;53.084;6.960;2022-08-06T07:50:15;16.50;99.90
52387;DHT22;38317;53.084;6.960;2022-08-06T07:52:43;17.00;99.90
52387;DHT22;38317;53.084;6.960;2022-08-06T07:55:09;17.40;99.90
52387;DHT22;38317;53.084;6.960;2022-08-06T07:57:37;17.80;99.90
52387;DHT22;38317;53.084;6.960;2022-08-06T08:00:04;18.10;99.90
52387;DHT22;38317;53.084;6.960;2022-08-06T08:02:29;18.40;99.90
52387;DHT22;38317;53.084;6.960;2022-08-06T08:04:56;18.70;99.90
52387;DHT22;38317;53.084;6.960;2022-08-06T08:07:41;19.00;99.90
52387;DHT22;38317;53.084;6.960;2022-08-06T08:10:07;19.30;99.90
52387;DHT22;38317;53.084;6.960;2022-08-06T08:12:36;19.60;99.90
52387;DHT22;38317;53.084;6.960;2022-08-06T08:15:20;19.80;99.90
52387;DHT22;38317;53.084;6.960;2022-08-06T08:17:46;20.00;99.90
52387;DHT22;38317;53.084;6.960;2022-08-06T08:20:12;20.20;99.90
52387;DHT22;38317;53.084;6.960;2022-08-06T08:22:39;20.40;99.90
52387;DHT22;38317;53.084;6.960;2022-08-06T08:25:05;20.50;99.90
52387;DHT22;38317;53.084;6.960;2022-08-06T08:27:31;20.60;99.90
52387;DHT22;38317;53.084;6.960;2022-08-06T08:29:56;20.80;99.90
52387;DHT22;38317;53.084;6.960;2022-08-06T08:32:23;20.90;99.90
52387;DHT22;38317;53.084;6.960;2022-08-06T08:34:49;20.90;99.90
52387;DHT22;38317;53.084;6.960;2022-08-06T08:37:15;20.70;99.90
52387;DHT22;38317;53.084;6.960;2022-08-06T08:39:41;20.60;99.90
52387;DHT22;38317;53.084;6.960;2022-08-06T08:42:16;20.60;99.90
52387;DHT22;38317;53.084;6.960;2022-08-06T08:44:43;20.80;99.90
52387;DHT22;38317;53.084;6.960;2022-08-06T08:47:13;20.80;99.90
52387;DHT22;38317;53.084;6.960;2022-08-06T08:49:47;21.00;99.90
52387;DHT22;38317;53.084;6.960;2022-08-06T08:52:19;21.40;99.90
52387;DHT22;38317;53.084;6.960;2022-08-06T08:54:50;21.90;99.90
52387;DHT22;38317;53.084;6.960;2022-08-06T08:57:16;22.10;99.90
52387;DHT22;38317;53.084;6.960;2022-08-06T08:59:42;22.00;99.90
52387;DHT22;38317;53.084;6.960;2022-08-06T09:02:12;21.60;99.90
52387;DHT22;38317;53.084;6.960;2022-08-06T09:04:38;21.30;99.90
52387;DHT22;38317;53.084;6.960;2022-08-06T09:07:05;21.10;99.90
52387;DHT22;38317;53.084;6.960;2022-08-06T09:09:34;20.80;99.90
52387;DHT22;38317;53.084;6.960;2022-08-06T09:12:00;20.60;99.90
52387;DHT22;38317;53.084;6.960;2022-08-06T09:14:26;20.30;99.90
52387;DHT22;38317;53.084;6.960;2022-08-06T09:16:52;20.20;99.90
52387;DHT22;38317;53.084;6.960;2022-08-06T09:19:18;20.00;99.90
52387;DHT22;38317;53.084;6.960;2022-08-06T09:21:44;19.90;99.90
52387;DHT22;38317;53.084;6.960;2022-08-06T09:24:10;19.90;99.90
52387;DHT22;38317;53.084;6.960;2022-08-06T09:26:36;20.30;99.90
52387;DHT22;38317;53.084;6.960;2022-08-06T09:29:19;20.70;99.90
52387;DHT22;38317;53.084;6.960;2022-08-06T09:31:54;20.80;99.90
52387;DHT22;38317;53.084;6.960;2022-08-06T09:34:20;20.80;99.90
52387;DHT22;38317;53.084;6.960;2022-08-06T09:36:48;21.20;99.90
52387;DHT22;38317;53.084;6.960;2022-08-06T09:39:14;21.70;99.90
52387;DHT22;38317;53.084;6.960;2022-08-06T09:41:47;22.10;99.50
52387;DHT22;38317;53.084;6.960;2022-08-06T09:44:13;22.40;98.40
52387;DHT22;38317;53.084;6.960;2022-08-06T09:46:44;22.30;95.10
52387;DHT22;38317;53.084;6.960;2022-08-06T09:49:11;22.10;96.70
52387;DHT22;38317;53.084;6.960;2022-08-06T09:51:38;21.70;96.70
52387;DHT22;38317;53.084;6.960;2022-08-06T09:54:07;21.40;97.40
52387;DHT22;38317;53.084;6.960;2022-08-06T09:56:34;21.00;98.50
52387;DHT22;38317;53.084;6.960;2022-08-06T09:59:05;20.70;99.90
52387;DHT22;38317;53.084;6.960;2022-08-06T10:01:43;20.20;99.90
52387;DHT22;38317;53.084;6.960;2022-08-06T10:04:28;19.70;99.90
52387;DHT22;38317;53.084;6.960;2022-08-06T10:06:58;19.30;99.90
52387;DHT22;38317;53.084;6.960;2022-08-06T10:09:25;19.10;99.90
52387;DHT22;38317;53.084;6.960;2022-08-06T10:11:51;18.90;99.90
52387;DHT22;38317;53.084;6.960;2022-08-06T10:14:31;18.70;99.90
52387;DHT22;38317;53.084;6.960;2022-08-06T10:17:13;18.60;99.90
52387;DHT22;38317;53.084;6.960;2022-08-06T10:19:47;18.60;99.90
52387;DHT22;38317;53.084;6.960;2022-08-06T10:22:15;18.50;99.90
52387;DHT22;38317;53.084;6.960;2022-08-06T10:24:42;18.50;99.90
52387;DHT22;38317;53.084;6.960;2022-08-06T10:27:13;18.50;99.90
52387;DHT22;38317;53.084;6.960;2022-08-06T10:30:02;18.60;99.90
52387;DHT22;38317;53.084;6.960;2022-08-06T10:35:00;18.70;99.90
52387;DHT22;38317;53.084;6.960;2022-08-06T10:37:28;18.30;99.90
52387;DHT22;38317;53.084;6.960;2022-08-06T10:39:57;19.00;99.90
52387;DHT22;38317;53.084;6.960;2022-08-06T10:42:25;19.20;99.90
52387;DHT22;38317;53.084;6.960;2022-08-06T10:44:51;19.40;99.90
52387;DHT22;38317;53.084;6.960;2022-08-06T10:47:18;19.90;99.90
52387;DHT22;38317;53.084;6.960;2022-08-06T10:49:45;20.20;99.90
52387;DHT22;38317;53.084;6.960;2022-08-06T10:52:12;20.50;99.90
52387;DHT22;38317;53.084;6.960;2022-08-06T10:54:40;21.00;99.90
52387;DHT22;38317;53.084;6.960;2022-08-06T10:57:07;21.30;99.90
52387;DHT22;38317;53.084;6.960;2022-08-06T10:59:34;21.50;99.90
52387;DHT22;38317;53.084;6.960;2022-08-06T11:13:35;22.60;99.90
52387;DHT22;38317;53.084;6.960;2022-08-06T11:16:01;22.90;99.80
52387;DHT22;38317;53.084;6.960;2022-08-06T11:18:27;23.20;99.50
52387;DHT22;38317;53.084;6.960;2022-08-06T11:20:54;23.30;97.90
52387;DHT22;38317;53.084;6.960;2022-08-06T11:23:25;23.00;97.60
52387;DHT22;38317;53.084;6.960;2022-08-06T11:25:52;22.70;97.70
52387;DHT22;38317;53.084;6.960;2022-08-06T11:30:54;22.10;97.70
52387;DHT22;38317;53.084;6.960;2022-08-06T11:33:21;21.70;98.00
52387;DHT22;38317;53.084;6.960;2022-08-06T11:36:09;21.40;97.50
52387;DHT22;38317;53.084;6.960;2022-08-06T11:38:56;21.10;97.20
52387;DHT22;38317;53.084;6.960;2022-08-06T11:41:29;20.90;95.70
52387;DHT22;38317;53.084;6.960;2022-08-06T11:46:29;20.60;97.40
52387;DHT22;38317;53.084;6.960;2022-08-06T11:54:25;20.50;96.60
52387;DHT22;38317;53.084;6.960;2022-08-06T12:07:39;20.80;97.10
52387;DHT22;38317;53.084;6.960;2022-08-06T12:12:45;20.90;96.40
52387;DHT22;38317;53.084;6.960;2022-08-06T12:17:58;21.50;94.90
52387;DHT22;38317;53.084;6.960;2022-08-06T12:20:32;21.80;94.70
52387;DHT22;38317;53.084;6.960;2022-08-06T12:22:59;21.80;94.80
52387;DHT22;38317;53.084;6.960;2022-08-06T12:25:36;22.20;95.20
52387;DHT22;38317;53.084;6.960;2022-08-06T12:28:03;22.40;93.00
52387;DHT22;38317;53.084;6.960;2022-08-06T12:30:42;22.70;93.10
52387;DHT22;38317;53.084;6.960;2022-08-06T12:33:08;23.00;91.30
52387;DHT22;38317;53.084;6.960;2022-08-06T12:35:36;23.20;91.50
52387;DHT22;38317;53.084;6.960;2022-08-06T12:38:12;23.50;90.30
52387;DHT22;38317;53.084;6.960;2022-08-06T12:40:38;23.70;90.20
52387;DHT22;38317;53.084;6.960;2022-08-06T12:45:31;24.20;90.00
52387;DHT22;38317;53.084;6.960;2022-08-06T12:47:58;24.20;88.20
52387;DHT22;38317;53.084;6.960;2022-08-06T12:50:25;24.10;87.90
52387;DHT22;38317;53.084;6.960;2022-08-06T12:55:50;24.30;81.80
52387;DHT22;38317;53.084;6.960;2022-08-06T12:58:19;24.30;84.80
52387;DHT22;38317;53.084;6.960;2022-08-06T13:00:50;23.80;83.40
52387;DHT22;38317;53.084;6.960;2022-08-06T13:03:18;23.50;80.30
52387;DHT22;38317;53.084;6.960;2022-08-06T13:05:45;23.40;81.90
52387;DHT22;38317;53.084;6.960;2022-08-06T13:08:12;23.60;85.30
52387;DHT22;38317;53.084;6.960;2022-08-06T13:10:38;23.50;84.40
52387;DHT22;38317;53.084;6.960;2022-08-06T13:13:06;23.20;84.80
52387;DHT22;38317;53.084;6.960;2022-08-06T13:15:36;23.10;85.10
52387;DHT22;38317;53.084;6.960;2022-08-06T13:18:06;23.00;86.00
52387;DHT22;38317;53.084;6.960;2022-08-06T13:20:47;22.90;85.50
52387;DHT22;38317;53.084;6.960;2022-08-06T13:23:15;22.60;82.30
52387;DHT22;38317;53.084;6.960;2022-08-06T13:28:09;22.40;87.50
52387;DHT22;38317;53.084;6.960;2022-08-06T13:30:34;22.40;88.40
52387;DHT22;38317;53.084;6.960;2022-08-06T13:33:18;22.60;87.80
52387;DHT22;38317;53.084;6.960;2022-08-06T13:35:45;23.00;84.60
52387;DHT22;38317;53.084;6.960;2022-08-06T13:38:24;23.40;86.30
52387;DHT22;38317;53.084;6.960;2022-08-06T13:40:50;23.50;82.70
52387;DHT22;38317;53.084;6.960;2022-08-06T13:43:16;23.50;80.70
52387;DHT22;38317;53.084;6.960;2022-08-06T13:45:42;23.20;80.50
52387;DHT22;38317;53.084;6.960;2022-08-06T13:48:10;23.10;81.60
52387;DHT22;38317;53.084;6.960;2022-08-06T13:50:41;22.80;82.60
52387;DHT22;38317;53.084;6.960;2022-08-06T13:53:08;22.60;82.10
52387;DHT22;38317;53.084;6.960;2022-08-06T13:55:35;22.30;83.80
52387;DHT22;38317;53.084;6.960;2022-08-06T13:58:00;22.30;83.70
52387;DHT22;38317;53.084;6.960;2022-08-06T14:00:26;22.40;83.90
52387;DHT22;38317;53.084;6.960;2022-08-06T14:02:53;22.50;81.80
52387;DHT22;38317;53.084;6.960;2022-08-06T14:05:20;22.60;82.70
52387;DHT22;38317;53.084;6.960;2022-08-06T14:07:46;22.80;82.20
52387;DHT22;38317;53.084;6.960;2022-08-06T14:10:13;22.90;81.20
52387;DHT22;38317;53.084;6.960;2022-08-06T14:12:39;23.20;80.30
52387;DHT22;38317;53.084;6.960;2022-08-06T14:15:05;23.30;78.70
52387;DHT22;38317;53.084;6.960;2022-08-06T14:17:31;23.40;78.60
52387;DHT22;38317;53.084;6.960;2022-08-06T14:19:57;23.40;77.80
52387;DHT22;38317;53.084;6.960;2022-08-06T14:22:22;23.20;77.70
52387;DHT22;38317;53.084;6.960;2022-08-06T14:24:48;22.80;78.10
52387;DHT22;38317;53.084;6.960;2022-08-06T14:27:14;22.60;78.80
52387;DHT22;38317;53.084;6.960;2022-08-06T14:29:40;22.80;79.70
52387;DHT22;38317;53.084;6.960;2022-08-06T14:32:06;22.90;80.00
52387;DHT22;38317;53.084;6.960;2022-08-06T14:34:33;23.10;78.40
52387;DHT22;38317;53.084;6.960;2022-08-06T14:37:00;23.20;77.60
52387;DHT22;38317;53.084;6.960;2022-08-06T14:39:25;23.20;77.30
52387;DHT22;38317;53.084;6.960;2022-08-06T14:41:51;23.40;76.50
52387;DHT22;38317;53.084;6.960;2022-08-06T14:44:35;23.60;76.20
52387;DHT22;38317;53.084;6.960;2022-08-06T14:47:20;23.80;75.00
52387;DHT22;38317;53.084;6.960;2022-08-06T14:49:45;23.90;75.70
52387;DHT22;38317;53.084;6.960;2022-08-06T14:52:11;23.90;75.20
52387;DHT22;38317;53.084;6.960;2022-08-06T14:54:37;24.00;74.90
52387;DHT22;38317;53.084;6.960;2022-08-06T14:57:08;23.90;75.00
52387;DHT22;38317;53.084;6.960;2022-08-06T14:59:35;24.00;76.20
52387;DHT22;38317;53.084;6.960;2022-08-06T15:02:01;24.10;76.60
52387;DHT22;38317;53.084;6.960;2022-08-06T15:04:28;24.20;76.20
52387;DHT22;38317;53.084;6.960;2022-08-06T15:06:54;24.10;74.90
52387;DHT22;38317;53.084;6.960;2022-08-06T15:09:21;24.10;75.60
52387;DHT22;38317;53.084;6.960;2022-08-06T15:11:48;23.90;74.10
52387;DHT22;38317;53.084;6.960;2022-08-06T15:14:14;23.80;74.40
52387;DHT22;38317;53.084;6.960;2022-08-06T15:16:40;23.60;74.90
52387;DHT22;38317;53.084;6.960;2022-08-06T15:19:05;23.40;72.50
52387;DHT22;38317;53.084;6.960;2022-08-06T15:21:32;23.40;70.50
52387;DHT22;38317;53.084;6.960;2022-08-06T15:23:58;23.30;73.10
52387;DHT22;38317;53.084;6.960;2022-08-06T15:26:25;23.10;72.40
52387;DHT22;38317;53.084;6.960;2022-08-06T15:28:52;23.00;72.80
52387;DHT22;38317;53.084;6.960;2022-08-06T15:31:19;23.20;73.40
52387;DHT22;38317;53.084;6.960;2022-08-06T15:33:46;23.40;72.50
52387;DHT22;38317;53.084;6.960;2022-08-06T15:36:12;23.40;72.70
52387;DHT22;38317;53.084;6.960;2022-08-06T15:38:38;23.40;73.20
52387;DHT22;38317;53.084;6.960;2022-08-06T15:41:05;23.40;73.30
52387;DHT22;38317;53.084;6.960;2022-08-06T15:43:32;23.30;73.50
52387;DHT22;38317;53.084;6.960;2022-08-06T15:45:58;23.10;73.40
52387;DHT22;38317;53.084;6.960;2022-08-06T15:48:29;22.80;72.40
52387;DHT22;38317;53.084;6.960;2022-08-06T15:50:56;22.50;73.90
52387;DHT22;38317;53.084;6.960;2022-08-06T15:53:22;22.30;74.60
52387;DHT22;38317;53.084;6.960;2022-08-06T15:55:48;22.10;75.40
52387;DHT22;38317;53.084;6.960;2022-08-06T15:58:14;22.10;76.10
52387;DHT22;38317;53.084;6.960;2022-08-06T16:00:41;22.00;76.80
52387;DHT22;38317;53.084;6.960;2022-08-06T16:03:10;22.00;76.90
52387;DHT22;38317;53.084;6.960;2022-08-06T16:05:37;22.10;77.50
52387;DHT22;38317;53.084;6.960;2022-08-06T16:08:03;22.30;76.60
52387;DHT22;38317;53.084;6.960;2022-08-06T16:10:29;22.30;76.30
52387;DHT22;38317;53.084;6.960;2022-08-06T16:12:55;22.30;75.60
52387;DHT22;38317;53.084;6.960;2022-08-06T16:15:21;22.30;76.60
52387;DHT22;38317;53.084;6.960;2022-08-06T16:17:47;22.20;76.60
52387;DHT22;38317;53.084;6.960;2022-08-06T16:20:14;22.10;76.50
52387;DHT22;38317;53.084;6.960;2022-08-06T16:22:41;22.20;76.90
52387;DHT22;38317;53.084;6.960;2022-08-06T16:25:07;22.30;76.20
52387;DHT22;38317;53.084;6.960;2022-08-06T16:27:33;22.40;75.50
52387;DHT22;38317;53.084;6.960;2022-08-06T16:29:59;22.50;75.40
52387;DHT22;38317;53.084;6.960;2022-08-06T16:32:25;22.50;75.60
52387;DHT22;38317;53.084;6.960;2022-08-06T16:34:51;22.60;75.50
52387;DHT22;38317;53.084;6.960;2022-08-06T16:37:20;22.60;75.50
52387;DHT22;38317;53.084;6.960;2022-08-06T16:39:46;22.60;75.20
52387;DHT22;38317;53.084;6.960;2022-08-06T16:42:12;22.50;74.80
52387;DHT22;38317;53.084;6.960;2022-08-06T16:44:37;22.40;74.60
52387;DHT22;38317;53.084;6.960;2022-08-06T16:47:04;22.30;74.90
52387;DHT22;38317;53.084;6.960;2022-08-06T16:49:29;22.20;75.00
52387;DHT22;38317;53.084;6.960;2022-08-06T16:51:55;22.10;74.00
52387;DHT22;38317;53.084;6.960;2022-08-06T16:54:23;21.90;75.40
52387;DHT22;38317;53.084;6.960;2022-08-06T16:56:48;21.90;75.80
52387;DHT22;38317;53.084;6.960;2022-08-06T16:59:14;21.80;76.20